Time;durP1;ratioP1;P1;durP2;ratioP2;P2;SDS_P1;SDS_P2;PMS_P1;PMS_P2;Temp;Humidity;BMP_temperature;BMP_pressure;BME280_temperature;BME280_humidity;BME280_pressure;Samples;Min_cycle;Max_cycle;Signal;HPM_P1;HPM_P2
2023/04/05 00:00:53;;;;;;;23.15;21.63;;;;;;;13.14;48.09;102373.72;5031363;28;20574;-74
2023/04/05 00:03:19;;;;;;;22.58;21.20;;;;;;;13.10;48.09;102359.75;5033018;28;20133;-74
2023/04/05 00:05:45;;;;;;;23.52;22.02;;;;;;;13.09;48.19;102362.69;5036093;28;20047;-74
2023/04/05 00:08:22;;;;;;;22.35;20.77;;;;;;;13.08;48.02;102363.72;5019946;28;20033;-74
2023/04/05 00:10:47;;;;;;;23.40;21.60;;;;;;;13.05;48.17;102364.16;5013354;28;20087;-74
2023/04/05 00:13:12;;;;;;;22.17;20.85;;;;;;;13.03;48.09;102360.84;5012720;28;20030;-74
2023/04/05 00:15:38;;;;;;;21.92;20.17;;;;;;;13.01;48.38;102361.06;5013252;28;20040;-74
2023/04/05 00:18:03;;;;;;;24.00;22.33;;;;;;;12.98;48.08;102356.09;5017335;28;20466;-74
2023/04/05 00:20:29;;;;;;;22.20;20.85;;;;;;;12.95;48.15;102354.66;5023121;28;20108;-74
2023/04/05 00:22:54;;;;;;;21.42;19.85;;;;;;;12.93;48.22;102356.75;5023454;28;20117;-74
2023/04/05 00:25:20;;;;;;;23.80;22.20;;;;;;;12.91;48.36;102352.59;5029295;28;20128;-74
2023/04/05 00:27:46;;;;;;;20.63;19.02;;;;;;;12.89;48.20;102352.78;5032840;28;20029;-74
2023/04/05 00:30:12;;;;;;;22.95;21.48;;;;;;;12.88;48.27;102350.31;5023201;28;20104;-74
2023/04/05 00:32:37;;;;;;;20.95;19.73;;;;;;;12.85;48.23;102357.00;5012953;28;20034;-74
2023/04/05 00:35:03;;;;;;;24.33;22.63;;;;;;;12.84;48.11;102349.91;5022431;28;20034;-74
2023/04/05 00:37:28;;;;;;;21.95;20.58;;;;;;;12.82;48.16;102351.19;5017475;28;20120;-74
2023/04/05 00:39:56;;;;;;;21.23;20.02;;;;;;;12.81;48.33;102346.81;5024621;28;20473;-75
2023/04/05 00:42:21;;;;;;;22.17;20.88;;;;;;;12.78;48.32;102346.19;5031221;28;20600;-73
2023/04/05 00:44:47;;;;;;;22.25;20.88;;;;;;;12.76;48.48;102344.75;5032010;28;20569;-74
2023/04/05 00:47:13;;;;;;;23.08;21.63;;;;;;;12.73;48.58;102347.91;5033718;28;20057;-74
2023/04/05 00:49:39;;;;;;;24.35;22.42;;;;;;;12.72;48.16;102341.63;5031416;28;20048;-74
2023/04/05 00:52:05;;;;;;;23.42;21.73;;;;;;;12.70;48.01;102342.91;5012079;28;20449;-74
2023/04/05 00:54:31;;;;;;;20.42;19.33;;;;;;;12.68;48.37;102337.72;5012439;28;20416;-73
2023/04/05 00:57:01;;;;;;;23.15;21.50;;;;;;;12.65;48.36;102332.72;5011908;28;20437;-74
2023/04/05 00:59:27;;;;;;;21.98;20.77;;;;;;;12.65;48.42;102338.16;5017210;28;20494;-73
2023/04/05 01:02:12;;;;;;;22.25;20.77;;;;;;;12.60;48.32;102331.69;5012054;28;20062;-74
2023/04/05 01:04:40;;;;;;;22.50;21.02;;;;;;;12.58;48.37;102341.94;5012587;28;20026;-73
2023/04/05 01:07:21;;;;;;;23.27;21.70;;;;;;;12.56;48.27;102334.03;5030870;28;20469;-73
2023/04/05 01:09:52;;;;;;;21.42;19.98;;;;;;;12.53;48.34;102329.03;5025584;28;20116;-74
2023/04/05 01:12:21;;;;;;;20.27;19.08;;;;;;;12.51;48.40;102336.56;5018312;28;20049;-73
2023/04/05 01:14:51;;;;;;;24.05;21.75;;;;;;;12.50;48.44;102324.06;5021265;28;20033;-74
2023/04/05 01:17:21;;;;;;;20.85;19.58;;;;;;;12.48;48.35;102326.16;5011926;28;20040;-73
2023/04/05 01:19:52;;;;;;;20.67;19.48;;;;;;;12.47;48.57;102329.88;5023791;28;20038;-73
2023/04/05 01:22:26;;;;;;;20.90;19.40;;;;;;;12.44;48.20;102327.63;5011701;28;20121;-73
2023/04/05 01:25:13;;;;;;;21.98;20.48;;;;;;;12.42;48.60;102327.00;5011825;28;20101;-73
2023/04/05 01:27:41;;;;;;;20.13;18.63;;;;;;;12.40;48.30;102323.66;5012497;28;20084;-73
2023/04/05 01:30:17;;;;;;;22.25;20.27;;;;;;;12.37;48.27;102319.50;5021037;28;20029;-73
2023/04/05 01:33:16;;;;;;;21.15;19.67;;;;;;;12.32;48.43;102312.06;5015813;28;20022;-73
2023/04/05 01:35:50;;;;;;;21.90;19.73;;;;;;;12.31;48.28;102312.25;5022618;28;20049;-73
2023/04/05 01:38:21;;;;;;;21.92;20.38;;;;;;;12.29;48.43;102311.63;5026923;28;20033;-73
2023/04/05 01:40:47;;;;;;;20.95;19.48;;;;;;;12.26;48.56;102314.78;5022815;28;20049;-73
2023/04/05 01:43:16;;;;;;;23.08;21.45;;;;;;;12.26;48.45;102309.38;5011043;28;20559;-73
2023/04/05 01:45:43;;;;;;;19.50;18.40;;;;;;;12.25;48.38;102319.38;5015302;28;20042;-73
2023/04/05 01:48:09;;;;;;;21.75;20.45;;;;;;;12.24;48.40;102311.44;5011363;28;20470;-73
2023/04/05 01:50:34;;;;;;;21.20;19.90;;;;;;;12.22;48.35;102314.41;5025776;28;20036;-73
2023/04/05 01:53:00;;;;;;;20.63;19.33;;;;;;;12.20;48.42;102308.34;5014349;28;20054;-75
2023/04/05 01:55:25;;;;;;;21.65;20.38;;;;;;;12.20;48.37;102304.81;5011289;28;20541;-73
2023/04/05 01:57:52;;;;;;;19.58;18.38;;;;;;;12.18;48.28;102306.91;5024964;28;20083;-73
2023/04/05 02:00:18;;;;;;;22.90;21.17;;;;;;;12.16;48.52;102304.41;5031689;28;20049;-73
2023/04/05 02:02:43;;;;;;;19.67;18.58;;;;;;;12.15;48.40;102299.22;5022576;28;20112;-73
2023/04/05 02:05:09;;;;;;;21.17;19.80;;;;;;;12.13;48.52;102296.72;5004492;28;20117;-73
2023/04/05 02:07:34;;;;;;;20.00;18.63;;;;;;;12.12;48.42;102300.47;5025212;28;20041;-72
2023/04/05 02:09:59;;;;;;;20.08;18.77;;;;;;;12.10;48.40;102289.03;5011624;28;20387;-73
2023/04/05 02:12:25;;;;;;;19.88;18.60;;;;;;;12.07;48.38;102290.28;5011217;28;20042;-72
2023/04/05 02:14:51;;;;;;;20.00;18.70;;;;;;;12.05;48.52;102292.38;5011924;28;20061;-73
2023/04/05 02:17:17;;;;;;;21.83;20.23;;;;;;;12.05;48.28;102294.25;5015890;28;20040;-73
2023/04/05 02:19:45;;;;;;;18.80;17.70;;;;;;;12.03;48.40;102286.34;5024772;28;20038;-72
2023/04/05 02:22:12;;;;;;;20.42;19.10;;;;;;;12.01;48.51;102284.88;5011180;28;20096;-73
2023/04/05 02:24:37;;;;;;;19.73;18.25;;;;;;;11.99;48.42;102292.38;5011502;28;20469;-73
2023/04/05 02:27:03;;;;;;;18.25;17.10;;;;;;;11.96;48.59;102293.66;5011601;28;20161;-76
2023/04/05 02:29:28;;;;;;;19.35;18.17;;;;;;;11.94;48.60;102298.44;5022418;28;20482;-73
2023/04/05 02:31:54;;;;;;;18.88;17.40;;;;;;;11.93;48.31;102291.38;5029770;28;20492;-73
2023/04/05 02:34:21;;;;;;;21.92;20.50;;;;;;;11.90;48.43;102284.50;5030127;28;20449;-73
2023/04/05 02:36:51;;;;;;;19.48;18.38;;;;;;;11.89;48.25;102284.72;5029832;28;20405;-73
2023/04/05 02:39:17;;;;;;;21.60;20.13;;;;;;;11.88;48.31;102285.75;5059509;28;20037;-73
2023/04/05 02:41:42;;;;;;;19.27;18.17;;;;;;;11.85;48.37;102281.56;5020941;28;20041;-72
2023/04/05 02:44:07;;;;;;;20.02;18.30;;;;;;;11.84;48.33;102287.19;5014851;28;20041;-74
2023/04/05 02:46:33;;;;;;;19.90;18.73;;;;;;;11.82;48.44;102275.78;5033365;28;20453;-73
2023/04/05 02:48:58;;;;;;;18.25;17.30;;;;;;;11.81;48.33;102282.22;5033972;28;20072;-73
2023/04/05 02:51:24;;;;;;;19.17;18.08;;;;;;;11.79;48.34;102270.75;5030952;28;20037;-73
2023/04/05 02:53:49;;;;;;;19.80;18.70;;;;;;;11.77;48.39;102268.28;5014793;28;20030;-73
2023/04/05 02:56:14;;;;;;;21.50;20.10;;;;;;;11.75;48.24;102269.53;5020114;28;20053;-73
2023/04/05 02:58:40;;;;;;;19.50;18.40;;;;;;;11.73;48.50;102268.91;5032166;28;20493;-73
2023/04/05 03:01:06;;;;;;;18.58;17.50;;;;;;;11.72;48.06;102270.81;5032656;28;20052;-75
2023/04/05 03:03:36;;;;;;;18.85;17.75;;;;;;;11.70;48.30;102267.47;5033557;28;20382;-72
2023/04/05 03:06:12;;;;;;;19.95;18.63;;;;;;;11.68;48.24;102259.53;5033141;28;20037;-72
2023/04/05 03:08:45;;;;;;;19.70;18.45;;;;;;;11.65;48.29;102254.56;5032196;28;20392;-73
2023/04/05 03:11:11;;;;;;;18.70;17.45;;;;;;;11.63;48.30;102259.34;5032585;28;20036;-73
2023/04/05 03:13:36;;;;;;;17.73;16.83;;;;;;;11.61;48.33;102255.19;5034660;28;20112;-73
2023/04/05 03:16:02;;;;;;;18.38;17.20;;;;;;;11.59;48.28;102247.31;5034020;28;20080;-73
2023/04/05 03:18:31;;;;;;;19.80;18.60;;;;;;;11.59;48.30;102258.13;5034315;28;20426;-73
2023/04/05 03:20:57;;;;;;;18.95;17.85;;;;;;;11.57;48.37;102243.16;5048748;28;20040;-73
2023/04/05 03:23:27;;;;;;;19.73;18.27;;;;;;;11.55;48.31;102250.66;5033847;28;20037;-72
2023/04/05 03:25:55;;;;;;;17.48;16.48;;;;;;;11.53;48.02;102244.59;5014794;28;20032;-73
2023/04/05 03:28:22;;;;;;;19.77;18.47;;;;;;;11.51;48.27;102246.69;5013499;28;20072;-72
2023/04/05 03:30:47;;;;;;;18.48;17.48;;;;;;;11.49;48.20;102236.09;5023399;28;20073;-72
2023/04/05 03:33:13;;;;;;;18.20;17.00;;;;;;;11.47;48.38;102235.47;5013756;28;20113;-72
2023/04/05 03:35:38;;;;;;;18.08;16.88;;;;;;;11.46;48.21;102239.19;5012666;28;20529;-74
2023/04/05 03:38:04;;;;;;;18.13;17.13;;;;;;;11.43;48.24;102237.75;5014342;28;20062;-72
2023/04/05 03:40:30;;;;;;;19.38;18.08;;;;;;;11.42;48.48;102232.56;5021784;28;20040;-72
2023/04/05 03:42:55;;;;;;;16.95;15.93;;;;;;;11.40;48.33;102231.94;5020159;28;20381;-73
2023/04/05 03:45:21;;;;;;;19.33;18.15;;;;;;;11.38;48.23;102232.16;5013568;28;20034;-72
2023/04/05 03:47:46;;;;;;;16.95;16.05;;;;;;;11.36;48.24;102231.53;5014107;28;20038;-72
2023/04/05 03:50:11;;;;;;;17.67;16.48;;;;;;;11.34;48.33;102235.47;5013109;28;20053;-75
2023/04/05 03:52:37;;;;;;;17.60;16.60;;;;;;;11.32;48.43;102230.31;5046747;28;20132;-73
2023/04/05 03:55:02;;;;;;;19.65;18.27;;;;;;;11.31;48.17;102230.50;5030456;28;20152;-72
2023/04/05 03:57:29;;;;;;;20.38;18.75;;;;;;;11.29;48.55;102229.88;5018253;28;20108;-73
2023/04/05 03:59:54;;;;;;;18.52;17.33;;;;;;;11.26;48.29;102226.56;5025499;28;20041;-72
2023/04/05 04:02:20;;;;;;;19.20;17.90;;;;;;;11.25;48.20;102224.91;5036959;28;20036;-73
2023/04/05 04:04:46;;;;;;;18.05;16.67;;;;;;;11.23;48.37;102229.69;5031979;28;20469;-73
2023/04/05 04:07:11;;;;;;;17.95;16.85;;;;;;;11.22;48.29;102232.59;5020692;28;20537;-74
2023/04/05 04:09:37;;;;;;;18.25;17.15;;;;;;;11.20;48.42;102240.91;5026890;28;20076;-73
2023/04/05 04:12:02;;;;;;;17.60;16.60;;;;;;;11.18;48.29;102234.88;5021807;28;20049;-72
2023/04/05 04:14:28;;;;;;;20.30;18.95;;;;;;;11.17;48.09;102232.41;5024324;28;20049;-72
2023/04/05 04:16:53;;;;;;;18.05;17.05;;;;;;;11.14;48.39;102227.44;5013467;28;20466;-72
2023/04/05 04:19:19;;;;;;;17.83;16.50;;;;;;;11.13;48.24;102223.88;5012742;28;20065;-73
2023/04/05 04:21:44;;;;;;;17.95;16.95;;;;;;;11.12;48.28;102229.50;5016948;28;20470;-72
2023/04/05 04:24:17;;;;;;;19.15;18.05;;;;;;;11.09;48.15;102228.06;5028437;28;20071;-72
2023/04/05 04:26:46;;;;;;;17.13;16.02;;;;;;;11.07;48.42;102226.59;5017228;28;20429;-72
2023/04/05 04:29:12;;;;;;;16.95;15.95;;;;;;;11.05;48.25;102226.78;5023277;28;20057;-72
2023/04/05 04:31:38;;;;;;;17.98;16.92;;;;;;;11.04;48.38;102228.69;5032026;28;20061;-72
2023/04/05 04:34:04;;;;;;;17.80;16.80;;;;;;;11.02;48.45;102228.03;5025016;28;20160;-72
2023/04/05 04:36:41;;;;;;;18.73;17.58;;;;;;;11.01;48.15;102228.25;5012277;28;20371;-72
2023/04/05 04:39:07;;;;;;;18.98;17.77;;;;;;;10.98;48.11;102228.66;5013173;28;20030;-74
2023/04/05 04:41:32;;;;;;;17.83;16.67;;;;;;;10.97;48.50;102229.72;5011069;28;20034;-74
2023/04/05 04:44:01;;;;;;;17.95;17.00;;;;;;;10.94;48.35;102222.84;5017559;28;20457;-74
2023/04/05 04:46:33;;;;;;;17.95;16.83;;;;;;;10.94;48.06;102219.31;5020666;28;20032;-74
2023/04/05 04:49:00;;;;;;;17.60;16.60;;;;;;;10.91;48.08;102223.28;5063118;28;20102;-72
2023/04/05 04:51:26;;;;;;;18.60;17.30;;;;;;;10.90;48.21;102218.91;5030941;28;20036;-73
2023/04/05 04:53:51;;;;;;;17.02;16.00;;;;;;;10.88;48.27;102220.97;5039964;28;20029;-73
2023/04/05 04:56:17;;;;;;;16.52;15.63;;;;;;;10.87;48.04;102223.91;5012151;28;20512;-75
2023/04/05 04:58:42;;;;;;;17.27;16.20;;;;;;;10.86;48.15;102228.47;5011932;28;20038;-72
2023/04/05 05:01:10;;;;;;;18.20;16.90;;;;;;;10.85;48.29;102223.28;5012417;28;20379;-73
2023/04/05 05:03:37;;;;;;;18.73;17.00;;;;;;;10.82;48.26;102221.81;5014616;28;20033;-73
2023/04/05 05:06:03;;;;;;;18.13;16.80;;;;;;;10.80;48.16;102216.59;5016165;28;20041;-73
2023/04/05 05:08:29;;;;;;;19.35;17.65;;;;;;;10.78;48.26;102218.69;5011719;28;20546;-73
2023/04/05 05:10:55;;;;;;;17.73;16.70;;;;;;;10.77;48.21;102216.22;5027097;28;20037;-73
2023/04/05 05:13:20;;;;;;;17.63;16.50;;;;;;;10.76;48.44;102220.78;5020669;28;20501;-75
2023/04/05 05:15:47;;;;;;;16.92;15.93;;;;;;;10.74;48.28;102219.31;5036802;28;20041;-74
2023/04/05 05:18:12;;;;;;;18.02;16.77;;;;;;;10.73;48.15;102226.59;5030943;28;20051;-73
2023/04/05 05:20:37;;;;;;;17.55;16.33;;;;;;;10.71;48.21;102223.28;5014495;28;20033;-74
2023/04/05 05:23:04;;;;;;;15.90;15.00;;;;;;;10.70;48.20;102220.78;5025766;28;20126;-73
2023/04/05 05:25:30;;;;;;;19.75;18.35;;;;;;;10.67;48.28;102223.91;5022461;28;20409;-74
2023/04/05 05:27:55;;;;;;;20.98;19.17;;;;;;;10.67;48.06;102223.91;5014934;28;20037;-73
2023/04/05 05:30:21;;;;;;;18.35;17.15;;;;;;;10.65;48.19;102218.69;5028571;28;20041;-76
2023/04/05 05:32:47;;;;;;;17.75;16.50;;;;;;;10.63;48.32;102218.06;5030299;28;20513;-75
2023/04/05 05:35:12;;;;;;;15.77;14.85;;;;;;;10.62;48.36;102219.09;5029594;28;20034;-73
2023/04/05 05:37:38;;;;;;;19.02;17.73;;;;;;;10.60;48.18;102218.47;5026420;28;20421;-73
2023/04/05 05:40:04;;;;;;;17.05;15.73;;;;;;;10.58;48.27;102221.41;5011606;28;20033;-74
2023/04/05 05:42:31;;;;;;;19.42;17.98;;;;;;;10.57;48.26;102227.00;5011327;28;20038;-74
2023/04/05 05:44:57;;;;;;;17.08;16.00;;;;;;;10.55;48.30;102221.78;5011543;28;20096;-74
2023/04/05 05:47:22;;;;;;;19.38;17.55;;;;;;;10.54;48.43;102224.72;5015548;28;20045;-76
2023/04/05 05:49:51;;;;;;;19.52;18.10;;;;;;;10.53;48.22;102220.34;5021767;28;20050;-74
2023/04/05 05:52:16;;;;;;;17.10;16.05;;;;;;;10.51;48.22;102222.44;5030983;28;20445;-75
2023/04/05 05:54:41;;;;;;;19.75;18.38;;;;;;;10.50;48.24;102226.16;5030183;28;20493;-74
2023/04/05 05:57:07;;;;;;;16.05;15.05;;;;;;;10.49;48.39;102233.44;5039852;28;20077;-74
2023/04/05 05:59:32;;;;;;;19.20;17.80;;;;;;;10.48;48.23;102228.22;5030368;28;20084;-74
2023/04/05 06:01:57;;;;;;;19.55;18.25;;;;;;;10.46;48.12;102233.84;5018873;28;20375;-74
2023/04/05 06:04:23;;;;;;;18.33;17.10;;;;;;;10.45;48.15;102232.16;5011569;28;20080;-76
2023/04/05 06:06:48;;;;;;;16.63;15.52;;;;;;;10.44;48.20;102235.09;5028083;28;20034;-73
2023/04/05 06:09:15;;;;;;;19.10;17.60;;;;;;;10.43;48.27;102233.41;5017576;28;20096;-74
2023/04/05 06:11:40;;;;;;;18.42;16.98;;;;;;;10.42;48.20;102234.47;5011267;28;20030;-73
2023/04/05 06:14:06;;;;;;;18.20;16.80;;;;;;;10.40;48.15;102231.94;5011392;28;20030;-73
2023/04/05 06:16:34;;;;;;;18.95;17.45;;;;;;;10.39;48.23;102236.53;5017761;28;20124;-74
2023/04/05 06:19:00;;;;;;;18.70;17.60;;;;;;;10.39;48.16;102233.00;5027725;28;20033;-73
2023/04/05 06:21:26;;;;;;;18.63;17.15;;;;;;;10.36;48.26;102233.41;5025151;28;20092;-76
2023/04/05 06:23:51;;;;;;;17.30;16.25;;;;;;;10.36;48.22;102238.81;5024109;28;20082;-74
2023/04/05 06:26:19;;;;;;;17.60;16.42;;;;;;;10.35;48.06;102234.44;5030913;28;20037;-73
2023/04/05 06:28:46;;;;;;;20.27;18.80;;;;;;;10.33;48.30;102236.50;5032749;28;20183;-75
2023/04/05 06:31:14;;;;;;;18.15;16.92;;;;;;;10.33;48.38;102239.19;5026817;28;20026;-74
2023/04/05 06:33:40;;;;;;;19.33;17.67;;;;;;;10.32;48.17;102237.56;5031765;28;20417;-74
2023/04/05 06:36:06;;;;;;;21.20;19.63;;;;;;;10.31;48.22;102231.31;5030018;28;20048;-74
2023/04/05 06:38:31;;;;;;;20.42;18.67;;;;;;;10.29;48.50;102228.00;5030489;28;20041;-74
2023/04/05 06:40:56;;;;;;;18.42;16.95;;;;;;;10.29;48.22;102228.00;5024345;28;20033;-75
2023/04/05 06:43:22;;;;;;;18.38;17.13;;;;;;;10.28;48.40;102234.44;5028831;28;20153;-75
2023/04/05 06:45:47;;;;;;;18.77;17.35;;;;;;;10.28;48.39;102230.88;5023291;28;20049;-74
2023/04/05 06:48:12;;;;;;;18.35;16.98;;;;;;;10.28;48.34;102228.19;5026768;28;20049;-75
2023/04/05 06:50:39;;;;;;;19.88;18.25;;;;;;;10.26;48.25;102227.56;5032392;28;20533;-74
2023/04/05 06:53:05;;;;;;;16.48;15.13;;;;;;;10.27;48.35;102223.81;5030973;28;20033;-76
2023/04/05 06:55:31;;;;;;;19.83;18.30;;;;;;;10.26;48.43;102227.56;5029421;28;20153;-74
2023/04/05 06:57:56;;;;;;;19.65;17.85;;;;;;;10.25;48.13;102226.69;5028307;28;20052;-75
2023/04/05 07:00:22;;;;;;;18.50;17.13;;;;;;;10.24;48.19;102227.75;5033724;28;20120;-73
2023/04/05 07:02:48;;;;;;;19.80;18.23;;;;;;;10.23;48.21;102223.38;5031116;28;20032;-74
2023/04/05 07:05:13;;;;;;;18.90;17.52;;;;;;;10.24;48.33;102224.22;5030668;28;20048;-74
2023/04/05 07:07:43;;;;;;;17.67;16.38;;;;;;;10.23;48.15;102226.09;5028778;28;20045;-74
2023/04/05 07:10:09;;;;;;;19.13;17.73;;;;;;;10.22;48.16;102229.81;5032648;28;20041;-75
2023/04/05 07:12:35;;;;;;;20.20;18.50;;;;;;;10.21;48.27;102222.75;5027692;28;20501;-74
2023/04/05 07:15:01;;;;;;;17.35;16.15;;;;;;;10.21;48.33;102217.34;5027122;28;20064;-75
2023/04/05 07:17:26;;;;;;;17.85;16.48;;;;;;;10.21;48.39;102221.94;5029505;28;20042;-74
2023/04/05 07:19:51;;;;;;;18.05;16.52;;;;;;;10.20;48.29;102223.78;5031450;28;20029;-74
2023/04/05 07:22:17;;;;;;;19.08;17.67;;;;;;;10.20;48.35;102223.78;5027541;28;20033;-73
2023/04/05 07:24:47;;;;;;;19.77;18.27;;;;;;;10.20;47.79;102226.47;5031847;28;20039;-73
2023/04/05 07:27:12;;;;;;;20.50;18.45;;;;;;;10.21;48.10;102235.44;5024786;28;20072;-76
2023/04/05 07:29:41;;;;;;;20.67;18.13;;;;;;;10.21;48.28;102233.56;5025284;28;20697;-72
2023/04/05 07:32:07;;;;;;;16.45;15.32;;;;;;;10.22;48.07;102234.38;5030768;28;20061;-71
2023/04/05 07:34:33;;;;;;;17.77;16.58;;;;;;;10.22;47.92;102232.50;5027710;28;20084;-73
2023/04/05 07:36:59;;;;;;;20.92;19.23;;;;;;;10.23;48.16;102226.09;5029359;28;20367;-73
2023/04/05 07:39:25;;;;;;;22.35;20.50;;;;;;;10.24;48.13;102219.63;5030307;28;20120;-75
2023/04/05 07:41:50;;;;;;;16.50;15.38;;;;;;;10.25;47.98;102224.00;5029349;28;20470;-72
2023/04/05 07:44:16;;;;;;;20.42;18.90;;;;;;;10.25;48.19;102221.28;5028036;28;20488;-72
2023/04/05 07:46:43;;;;;;;22.20;19.90;;;;;;;10.27;48.16;102224.63;5027502;28;20448;-76
2023/04/05 07:49:09;;;;;;;18.02;16.70;;;;;;;10.29;48.06;102228.00;5028793;28;20030;-73
2023/04/05 07:51:37;;;;;;;21.30;19.13;;;;;;;10.30;48.00;102223.41;5026381;28;20342;-72
2023/04/05 07:54:05;;;;;;;20.00;17.55;;;;;;;10.31;48.12;102230.50;5029300;28;20026;-72
2023/04/05 07:56:31;;;;;;;19.17;17.65;;;;;;;10.32;48.07;102224.88;5021759;28;20085;-78
2023/04/05 07:59:00;;;;;;;19.27;17.67;;;;;;;10.35;47.95;102229.84;5028686;28;20064;-74
2023/04/05 08:01:26;;;;;;;19.08;17.35;;;;;;;10.36;48.14;102228.84;5025934;28;20045;-73
2023/04/05 08:03:56;;;;;;;18.02;16.83;;;;;;;10.39;48.01;102228.44;5028132;28;20044;-74
2023/04/05 08:06:23;;;;;;;22.65;19.77;;;;;;;10.41;47.96;102220.13;5026009;28;20025;-74
2023/04/05 08:08:49;;;;;;;20.77;18.75;;;;;;;10.45;47.97;102231.34;5028658;28;20053;-74
2023/04/05 08:11:14;;;;;;;20.45;18.80;;;;;;;10.47;48.15;102229.28;5029278;28;20432;-74
2023/04/05 08:13:40;;;;;;;19.25;17.45;;;;;;;10.49;48.02;102225.31;5027422;28;20034;-74
2023/04/05 08:16:10;;;;;;;20.63;19.00;;;;;;;10.53;47.91;102228.44;5026839;28;20041;-74
2023/04/05 08:18:35;;;;;;;21.50;19.77;;;;;;;10.55;47.83;102220.97;5024517;28;20116;-73
2023/04/05 08:21:01;;;;;;;19.73;17.90;;;;;;;10.59;47.95;102230.34;5027836;28;20462;-74
2023/04/05 08:23:30;;;;;;;19.00;17.45;;;;;;;10.61;48.09;102222.84;5024309;28;20033;-73
2023/04/05 08:25:55;;;;;;;19.35;17.95;;;;;;;10.64;48.35;102219.75;5025823;28;20037;-74
2023/04/05 08:28:21;;;;;;;19.13;17.52;;;;;;;10.68;48.06;102220.97;5025461;28;20040;-73
2023/04/05 08:30:47;;;;;;;22.67;20.73;;;;;;;10.73;48.23;102218.47;5024871;28;20026;-73
2023/04/05 08:33:13;;;;;;;17.02;16.02;;;;;;;10.78;48.09;102220.56;5027363;28;20497;-77
2023/04/05 08:35:39;;;;;;;21.38;19.55;;;;;;;10.83;48.07;102218.91;5027453;28;20053;-74
2023/04/05 08:38:06;;;;;;;19.00;17.55;;;;;;;10.88;48.57;102210.16;5024759;28;20041;-76
2023/04/05 08:40:43;;;;;;;22.42;20.40;;;;;;;10.93;48.28;102215.78;5026552;28;20033;-74
2023/04/05 08:43:24;;;;;;;18.95;17.60;;;;;;;10.96;48.36;102220.78;5027341;28;20036;-74
2023/04/05 08:45:51;;;;;;;22.15;20.25;;;;;;;11.03;48.39;102216.19;5023387;28;20061;-73
2023/04/05 08:48:17;;;;;;;19.52;17.98;;;;;;;11.08;48.50;102220.97;5028267;28;20466;-74
2023/04/05 08:50:52;;;;;;;22.20;20.13;;;;;;;11.11;48.39;102214.31;5026123;28;20045;-73
2023/04/05 08:53:19;;;;;;;21.42;19.38;;;;;;;11.16;48.45;102217.22;5023333;28;20067;-73
2023/04/05 08:55:49;;;;;;;20.75;18.95;;;;;;;11.20;48.56;102211.16;5026553;28;20060;-73
2023/04/05 08:58:15;;;;;;;20.23;18.65;;;;;;;11.25;48.58;102216.78;5023513;28;20033;-75
2023/04/05 09:00:41;;;;;;;21.45;19.88;;;;;;;11.28;48.50;102212.81;5029200;28;20038;-74
2023/04/05 09:03:11;;;;;;;19.88;18.58;;;;;;;11.33;48.41;102206.78;5028457;28;20405;-74
2023/04/05 09:05:39;;;;;;;19.10;17.48;;;;;;;11.38;48.44;102210.50;5024480;28;20045;-73
2023/04/05 09:08:05;;;;;;;19.23;17.65;;;;;;;11.42;47.90;102210.94;5023755;28;20040;-73
2023/04/05 09:10:31;;;;;;;21.58;19.50;;;;;;;11.47;47.94;102211.13;5025040;28;20025;-74
2023/04/05 09:12:57;;;;;;;19.45;17.80;;;;;;;11.53;48.23;102212.97;5027950;28;20103;-74
2023/04/05 09:15:25;;;;;;;19.27;18.05;;;;;;;11.56;48.81;102214.41;5025567;28;20060;-74
2023/04/05 09:17:51;;;;;;;19.73;18.25;;;;;;;11.60;48.69;102208.38;5025562;28;20029;-75
2023/04/05 09:20:17;;;;;;;20.42;18.98;;;;;;;11.64;48.81;102206.91;5028263;28;20428;-74
2023/04/05 09:22:46;;;;;;;21.98;20.13;;;;;;;11.69;48.88;102206.22;5028568;28;20083;-74
2023/04/05 09:25:31;;;;;;;18.55;17.35;;;;;;;11.73;48.68;102202.06;5027190;28;20033;-74
2023/04/05 09:27:58;;;;;;;21.13;19.38;;;;;;;11.79;48.41;102203.06;5028252;28;20037;-75
2023/04/05 09:30:25;;;;;;;20.42;19.05;;;;;;;11.82;48.94;102192.66;5024980;28;20413;-75
2023/04/05 09:32:54;;;;;;;21.65;20.15;;;;;;;11.88;48.84;102199.13;5026256;28;20404;-75
2023/04/05 09:35:27;;;;;;;18.48;17.33;;;;;;;11.90;48.57;102200.56;5023564;28;20079;-74
2023/04/05 09:37:57;;;;;;;24.25;22.55;;;;;;;11.93;49.30;102193.06;5028795;28;20338;-74
2023/04/05 09:40:23;;;;;;;20.65;18.98;;;;;;;11.97;49.12;102191.56;5027136;28;20025;-74
2023/04/05 09:42:49;;;;;;;22.33;20.38;;;;;;;12.01;49.29;102184.69;5027445;28;20043;-73
2023/04/05 09:45:17;;;;;;;20.30;19.00;;;;;;;12.05;49.02;102191.34;5026791;28;20037;-73
2023/04/05 09:47:53;;;;;;;19.38;18.13;;;;;;;12.08;49.57;102189.00;5027172;28;20068;-73
2023/04/05 09:50:19;;;;;;;21.52;18.70;;;;;;;12.12;49.39;102184.84;5027853;28;20033;-74
2023/04/05 09:52:46;;;;;;;20.88;19.25;;;;;;;12.17;49.31;102186.03;5024686;28;20462;-74
2023/04/05 09:55:12;;;;;;;20.52;18.98;;;;;;;12.21;49.30;102187.28;5023307;28;20049;-74
2023/04/05 09:57:39;;;;;;;19.27;17.98;;;;;;;12.27;49.07;102191.81;5027199;28;20079;-73
2023/04/05 10:00:16;;;;;;;20.25;18.80;;;;;;;12.29;49.35;102179.69;5029197;28;20060;-74
2023/04/05 10:02:41;;;;;;;19.27;18.08;;;;;;;12.35;49.44;102180.72;5025772;28;20034;-76
2023/04/05 10:05:12;;;;;;;18.05;16.85;;;;;;;12.38;49.58;102180.28;5028883;28;20037;-76
2023/04/05 10:07:39;;;;;;;20.92;19.42;;;;;;;12.44;49.73;102175.84;5025707;28;20109;-74
2023/04/05 10:10:05;;;;;;;20.58;19.13;;;;;;;12.49;49.64;102174.13;5028156;28;20045;-74
2023/04/05 10:12:32;;;;;;;21.00;19.45;;;;;;;12.55;49.50;102169.75;5026918;28;20029;-74
2023/04/05 10:14:58;;;;;;;21.63;20.08;;;;;;;12.60;49.64;102166.34;5030646;28;20482;-76
2023/04/05 10:17:29;;;;;;;21.13;19.35;;;;;;;12.65;49.38;102161.94;5028259;28;20125;-74
2023/04/05 10:20:14;;;;;;;21.00;19.42;;;;;;;12.69;49.41;102162.31;5027913;28;20082;-74
2023/04/05 10:22:47;;;;;;;20.95;19.45;;;;;;;12.71;49.38;102165.63;5029044;28;20482;-74
2023/04/05 10:25:23;;;;;;;19.80;18.50;;;;;;;12.74;49.39;102162.47;5025021;28;20033;-71
2023/04/05 10:27:54;;;;;;;22.02;20.15;;;;;;;12.78;49.51;102166.41;5023103;28;20037;-73
2023/04/05 10:30:28;;;;;;;20.05;18.65;;;;;;;12.83;49.64;102160.31;5029583;28;20495;-73
2023/04/05 10:33:08;;;;;;;22.88;20.85;;;;;;;12.88;49.35;102164.03;5025484;28;20900;-73
2023/04/05 10:35:39;;;;;;;20.80;19.00;;;;;;;12.91;49.19;102160.03;5029408;28;20030;-73
2023/04/05 10:38:25;;;;;;;20.73;19.38;;;;;;;12.93;49.50;102158.75;5028114;28;20306;-74
2023/04/05 10:40:56;;;;;;;21.02;19.63;;;;;;;12.98;49.44;102152.66;5028487;28;20033;-72
2023/04/05 10:43:24;;;;;;;20.98;19.48;;;;;;;13.03;49.45;102152.81;5026166;28;20068;-73
2023/04/05 10:45:52;;;;;;;22.33;20.73;;;;;;;13.07;49.63;102145.88;5032781;28;20096;-73
2023/04/05 10:48:26;;;;;;;20.13;18.83;;;;;;;13.12;49.69;102147.91;5025584;28;20381;-72
2023/04/05 10:50:52;;;;;;;24.42;22.23;;;;;;;13.15;49.89;102145.59;5025224;28;20029;-73
2023/04/05 10:53:19;;;;;;;20.55;19.35;;;;;;;13.21;49.70;102146.56;5023610;28;20091;-73
2023/04/05 10:55:46;;;;;;;20.52;19.17;;;;;;;13.25;49.72;102131.47;5027769;28;20053;-73
2023/04/05 10:58:14;;;;;;;21.02;19.63;;;;;;;13.29;49.74;102134.63;5024934;28;20481;-73
2023/04/05 11:00:40;;;;;;;22.52;20.92;;;;;;;13.32;49.58;102129.56;5028346;28;20033;-73
2023/04/05 11:03:05;;;;;;;24.83;22.92;;;;;;;13.34;49.44;102130.16;5028916;28;20048;-74
2023/04/05 11:05:36;;;;;;;24.88;23.08;;;;;;;13.38;49.99;102125.09;5027543;28;20045;-74
2023/04/05 11:08:14;;;;;;;24.40;22.60;;;;;;;13.40;49.57;102121.09;5027080;28;20045;-76
2023/04/05 11:10:40;;;;;;;20.10;19.00;;;;;;;13.44;49.63;102121.47;5029030;28;20513;-74